sensor_id;sensor_type;location;lat;lon;timestamp;P1;durP1;ratioP1;P2;durP2;ratioP2
8825;SDS011;4449;50.872;4.714;2023-03-12T00:01:52;7.20;;;4.20;;
8825;SDS011;4449;50.872;4.714;2023-03-12T00:04:20;4.87;;;3.40;;
8825;SDS011;4449;50.872;4.714;2023-03-12T00:06:47;7.63;;;4.37;;
8825;SDS011;4449;50.872;4.714;2023-03-12T00:09:17;7.53;;;4.13;;
8825;SDS011;4449;50.872;4.714;2023-03-12T00:11:45;4.33;;;3.93;;
8825;SDS011;4449;50.872;4.714;2023-03-12T00:14:12;6.43;;;4.10;;
8825;SDS011;4449;50.872;4.714;2023-03-12T00:16:40;7.37;;;4.20;;
8825;SDS011;4449;50.872;4.714;2023-03-12T00:19:08;5.23;;;3.90;;
8825;SDS011;4449;50.872;4.714;2023-03-12T00:21:37;6.80;;;4.50;;
8825;SDS011;4449;50.872;4.714;2023-03-12T00:24:05;4.53;;;3.83;;
8825;SDS011;4449;50.872;4.714;2023-03-12T00:26:35;5.97;;;4.10;;
8825;SDS011;4449;50.872;4.714;2023-03-12T00:29:02;7.73;;;3.77;;
8825;SDS011;4449;50.872;4.714;2023-03-12T00:31:31;6.63;;;4.20;;
8825;SDS011;4449;50.872;4.714;2023-03-12T00:33:59;7.23;;;4.50;;
8825;SDS011;4449;50.872;4.714;2023-03-12T00:36:28;6.73;;;4.17;;
8825;SDS011;4449;50.872;4.714;2023-03-12T00:38:56;9.17;;;5.17;;
8825;SDS011;4449;50.872;4.714;2023-03-12T00:41:24;7.13;;;4.70;;
8825;SDS011;4449;50.872;4.714;2023-03-12T00:43:54;5.77;;;3.67;;
8825;SDS011;4449;50.872;4.714;2023-03-12T00:46:22;6.37;;;4.10;;
8825;SDS011;4449;50.872;4.714;2023-03-12T00:48:49;4.87;;;3.70;;
8825;SDS011;4449;50.872;4.714;2023-03-12T00:51:17;5.20;;;3.83;;
8825;SDS011;4449;50.872;4.714;2023-03-12T00:53:45;7.83;;;3.63;;
8825;SDS011;4449;50.872;4.714;2023-03-12T00:56:13;8.97;;;4.20;;
8825;SDS011;4449;50.872;4.714;2023-03-12T00:58:41;4.53;;;3.47;;
8825;SDS011;4449;50.872;4.714;2023-03-12T01:01:10;4.97;;;3.40;;
8825;SDS011;4449;50.872;4.714;2023-03-12T01:03:38;5.00;;;3.90;;
8825;SDS011;4449;50.872;4.714;2023-03-12T01:06:06;6.87;;;3.73;;
8825;SDS011;4449;50.872;4.714;2023-03-12T01:08:33;7.80;;;3.80;;
8825;SDS011;4449;50.872;4.714;2023-03-12T01:11:01;3.60;;;3.30;;
8825;SDS011;4449;50.872;4.714;2023-03-12T01:13:29;3.87;;;3.40;;
8825;SDS011;4449;50.872;4.714;2023-03-12T01:15:57;10.17;;;4.17;;
8825;SDS011;4449;50.872;4.714;2023-03-12T01:18:26;7.07;;;4.23;;
8825;SDS011;4449;50.872;4.714;2023-03-12T01:20:54;6.37;;;4.17;;
8825;SDS011;4449;50.872;4.714;2023-03-12T01:23:22;5.67;;;3.43;;
8825;SDS011;4449;50.872;4.714;2023-03-12T01:25:50;4.90;;;2.77;;
8825;SDS011;4449;50.872;4.714;2023-03-12T01:28:19;3.77;;;3.43;;
8825;SDS011;4449;50.872;4.714;2023-03-12T01:30:47;6.43;;;2.80;;
8825;SDS011;4449;50.872;4.714;2023-03-12T01:33:15;7.30;;;3.20;;
8825;SDS011;4449;50.872;4.714;2023-03-12T01:35:48;6.43;;;2.83;;
8825;SDS011;4449;50.872;4.714;2023-03-12T01:38:16;5.10;;;3.50;;
8825;SDS011;4449;50.872;4.714;2023-03-12T01:40:45;9.07;;;3.07;;
8825;SDS011;4449;50.872;4.714;2023-03-12T01:43:23;3.33;;;2.30;;
8825;SDS011;4449;50.872;4.714;2023-03-12T01:46:03;3.47;;;2.83;;
8825;SDS011;4449;50.872;4.714;2023-03-12T01:48:32;5.43;;;2.73;;
8825;SDS011;4449;50.872;4.714;2023-03-12T01:51:02;8.90;;;3.43;;
8825;SDS011;4449;50.872;4.714;2023-03-12T01:53:31;3.10;;;2.20;;
8825;SDS011;4449;50.872;4.714;2023-03-12T01:55:59;5.27;;;2.83;;
8825;SDS011;4449;50.872;4.714;2023-03-12T01:58:28;6.43;;;2.70;;
8825;SDS011;4449;50.872;4.714;2023-03-12T02:00:58;4.77;;;2.20;;
8825;SDS011;4449;50.872;4.714;2023-03-12T02:03:26;4.20;;;2.57;;
8825;SDS011;4449;50.872;4.714;2023-03-12T02:05:55;4.07;;;2.77;;
8825;SDS011;4449;50.872;4.714;2023-03-12T02:08:26;3.73;;;2.50;;
8825;SDS011;4449;50.872;4.714;2023-03-12T02:10:53;4.50;;;2.67;;
8825;SDS011;4449;50.872;4.714;2023-03-12T02:13:21;5.80;;;2.60;;
8825;SDS011;4449;50.872;4.714;2023-03-12T02:15:49;4.37;;;2.40;;
8825;SDS011;4449;50.872;4.714;2023-03-12T02:18:17;3.53;;;2.33;;
8825;SDS011;4449;50.872;4.714;2023-03-12T02:20:48;2.43;;;2.23;;
8825;SDS011;4449;50.872;4.714;2023-03-12T02:23:18;2.40;;;2.20;;
8825;SDS011;4449;50.872;4.714;2023-03-12T02:25:50;4.43;;;2.23;;
8825;SDS011;4449;50.872;4.714;2023-03-12T02:28:19;4.03;;;2.23;;
8825;SDS011;4449;50.872;4.714;2023-03-12T02:30:49;5.93;;;2.47;;
8825;SDS011;4449;50.872;4.714;2023-03-12T02:33:16;4.00;;;2.30;;
8825;SDS011;4449;50.872;4.714;2023-03-12T02:35:45;2.83;;;2.30;;
8825;SDS011;4449;50.872;4.714;2023-03-12T02:38:33;4.63;;;2.10;;
8825;SDS011;4449;50.872;4.714;2023-03-12T02:41:03;11.43;;;2.87;;
8825;SDS011;4449;50.872;4.714;2023-03-12T02:43:32;3.57;;;2.80;;
8825;SDS011;4449;50.872;4.714;2023-03-12T02:46:00;7.47;;;2.87;;
8825;SDS011;4449;50.872;4.714;2023-03-12T02:48:27;3.13;;;2.50;;
8825;SDS011;4449;50.872;4.714;2023-03-12T02:50:55;5.60;;;2.53;;
8825;SDS011;4449;50.872;4.714;2023-03-12T02:53:23;4.40;;;2.33;;
8825;SDS011;4449;50.872;4.714;2023-03-12T02:55:51;3.53;;;2.07;;
8825;SDS011;4449;50.872;4.714;2023-03-12T02:58:20;5.80;;;2.80;;
8825;SDS011;4449;50.872;4.714;2023-03-12T03:00:48;3.37;;;2.30;;
8825;SDS011;4449;50.872;4.714;2023-03-12T03:03:15;6.87;;;2.77;;
8825;SDS011;4449;50.872;4.714;2023-03-12T03:05:43;4.10;;;2.90;;
8825;SDS011;4449;50.872;4.714;2023-03-12T03:08:11;3.93;;;2.53;;
8825;SDS011;4449;50.872;4.714;2023-03-12T03:10:39;6.00;;;3.20;;
8825;SDS011;4449;50.872;4.714;2023-03-12T03:13:06;2.57;;;2.40;;
8825;SDS011;4449;50.872;4.714;2023-03-12T03:15:36;5.50;;;2.60;;
8825;SDS011;4449;50.872;4.714;2023-03-12T03:18:05;4.10;;;2.73;;
8825;SDS011;4449;50.872;4.714;2023-03-12T03:20:32;4.20;;;2.43;;
8825;SDS011;4449;50.872;4.714;2023-03-12T03:23:00;6.33;;;2.73;;
8825;SDS011;4449;50.872;4.714;2023-03-12T03:25:28;2.40;;;2.20;;
8825;SDS011;4449;50.872;4.714;2023-03-12T03:27:56;3.97;;;2.47;;
8825;SDS011;4449;50.872;4.714;2023-03-12T03:30:24;3.30;;;2.80;;
8825;SDS011;4449;50.872;4.714;2023-03-12T03:32:53;6.30;;;2.93;;
8825;SDS011;4449;50.872;4.714;2023-03-12T03:35:21;5.97;;;2.33;;
8825;SDS011;4449;50.872;4.714;2023-03-12T03:37:49;3.57;;;2.10;;
8825;SDS011;4449;50.872;4.714;2023-03-12T03:40:17;9.87;;;2.90;;
8825;SDS011;4449;50.872;4.714;2023-03-12T03:42:44;2.97;;;2.27;;
8825;SDS011;4449;50.872;4.714;2023-03-12T03:45:12;2.57;;;2.40;;
8825;SDS011;4449;50.872;4.714;2023-03-12T03:47:40;2.23;;;2.13;;
8825;SDS011;4449;50.872;4.714;2023-03-12T03:50:10;10.33;;;2.20;;
8825;SDS011;4449;50.872;4.714;2023-03-12T03:52:38;4.50;;;2.40;;
8825;SDS011;4449;50.872;4.714;2023-03-12T03:55:06;2.87;;;2.27;;
8825;SDS011;4449;50.872;4.714;2023-03-12T03:57:33;6.83;;;3.00;;
8825;SDS011;4449;50.872;4.714;2023-03-12T04:00:01;3.60;;;2.90;;
8825;SDS011;4449;50.872;4.714;2023-03-12T04:02:33;4.07;;;2.10;;
8825;SDS011;4449;50.872;4.714;2023-03-12T04:05:01;2.93;;;2.50;;
8825;SDS011;4449;50.872;4.714;2023-03-12T04:07:30;3.23;;;2.40;;
8825;SDS011;4449;50.872;4.714;2023-03-12T04:09:58;4.33;;;2.43;;
8825;SDS011;4449;50.872;4.714;2023-03-12T04:12:25;6.70;;;2.63;;
8825;SDS011;4449;50.872;4.714;2023-03-12T04:14:54;7.03;;;2.47;;
8825;SDS011;4449;50.872;4.714;2023-03-12T04:17:21;3.83;;;2.33;;
8825;SDS011;4449;50.872;4.714;2023-03-12T04:19:49;6.07;;;2.37;;
8825;SDS011;4449;50.872;4.714;2023-03-12T04:22:17;4.27;;;2.63;;
8825;SDS011;4449;50.872;4.714;2023-03-12T04:24:46;2.80;;;2.53;;
8825;SDS011;4449;50.872;4.714;2023-03-12T04:27:14;5.80;;;2.50;;
8825;SDS011;4449;50.872;4.714;2023-03-12T04:29:42;3.90;;;2.50;;
8825;SDS011;4449;50.872;4.714;2023-03-12T04:32:09;7.97;;;3.10;;
8825;SDS011;4449;50.872;4.714;2023-03-12T04:34:37;4.37;;;2.70;;
8825;SDS011;4449;50.872;4.714;2023-03-12T04:37:05;4.90;;;2.97;;
8825;SDS011;4449;50.872;4.714;2023-03-12T04:39:33;3.73;;;2.40;;
8825;SDS011;4449;50.872;4.714;2023-03-12T04:42:02;5.80;;;2.70;;
8825;SDS011;4449;50.872;4.714;2023-03-12T04:44:30;4.37;;;2.73;;
8825;SDS011;4449;50.872;4.714;2023-03-12T04:46:57;2.80;;;2.60;;
8825;SDS011;4449;50.872;4.714;2023-03-12T04:49:25;5.03;;;2.63;;
8825;SDS011;4449;50.872;4.714;2023-03-12T04:51:53;3.07;;;2.07;;
8825;SDS011;4449;50.872;4.714;2023-03-12T04:54:21;4.60;;;2.70;;
8825;SDS011;4449;50.872;4.714;2023-03-12T04:56:49;4.43;;;2.37;;
8825;SDS011;4449;50.872;4.714;2023-03-12T04:59:18;4.17;;;3.20;;
8825;SDS011;4449;50.872;4.714;2023-03-12T05:01:46;5.23;;;2.90;;
8825;SDS011;4449;50.872;4.714;2023-03-12T05:04:13;4.43;;;2.80;;
8825;SDS011;4449;50.872;4.714;2023-03-12T05:06:41;4.43;;;2.83;;
8825;SDS011;4449;50.872;4.714;2023-03-12T05:09:09;4.63;;;2.60;;
8825;SDS011;4449;50.872;4.714;2023-03-12T05:11:37;4.13;;;2.50;;
8825;SDS011;4449;50.872;4.714;2023-03-12T05:14:04;5.30;;;2.77;;
8825;SDS011;4449;50.872;4.714;2023-03-12T05:16:33;4.67;;;2.93;;
8825;SDS011;4449;50.872;4.714;2023-03-12T05:19:01;6.03;;;2.80;;
8825;SDS011;4449;50.872;4.714;2023-03-12T05:21:29;5.80;;;3.67;;
8825;SDS011;4449;50.872;4.714;2023-03-12T05:23:57;3.50;;;3.17;;
8825;SDS011;4449;50.872;4.714;2023-03-12T05:26:26;5.23;;;3.23;;
8825;SDS011;4449;50.872;4.714;2023-03-12T05:28:55;4.07;;;3.30;;
8825;SDS011;4449;50.872;4.714;2023-03-12T05:31:23;2.73;;;2.53;;
8825;SDS011;4449;50.872;4.714;2023-03-12T05:33:52;3.10;;;2.87;;
8825;SDS011;4449;50.872;4.714;2023-03-12T05:36:20;4.53;;;2.90;;
8825;SDS011;4449;50.872;4.714;2023-03-12T05:38:48;4.40;;;3.40;;
8825;SDS011;4449;50.872;4.714;2023-03-12T05:41:17;4.47;;;3.07;;
8825;SDS011;4449;50.872;4.714;2023-03-12T05:43:45;3.87;;;2.93;;
8825;SDS011;4449;50.872;4.714;2023-03-12T05:46:13;3.80;;;2.97;;
8825;SDS011;4449;50.872;4.714;2023-03-12T05:48:41;3.17;;;2.83;;
8825;SDS011;4449;50.872;4.714;2023-03-12T05:51:10;5.60;;;3.37;;
8825;SDS011;4449;50.872;4.714;2023-03-12T05:53:38;3.93;;;3.37;;
8825;SDS011;4449;50.872;4.714;2023-03-12T05:56:07;3.37;;;3.07;;
8825;SDS011;4449;50.872;4.714;2023-03-12T05:58:35;4.20;;;3.60;;
8825;SDS011;4449;50.872;4.714;2023-03-12T06:01:09;5.00;;;3.37;;
8825;SDS011;4449;50.872;4.714;2023-03-12T06:03:37;5.27;;;3.67;;
8825;SDS011;4449;50.872;4.714;2023-03-12T06:06:07;8.50;;;4.27;;
8825;SDS011;4449;50.872;4.714;2023-03-12T06:08:36;7.93;;;4.77;;
8825;SDS011;4449;50.872;4.714;2023-03-12T06:11:04;4.37;;;4.07;;
8825;SDS011;4449;50.872;4.714;2023-03-12T06:13:32;6.07;;;4.60;;
8825;SDS011;4449;50.872;4.714;2023-03-12T06:16:03;10.90;;;4.27;;
8825;SDS011;4449;50.872;4.714;2023-03-12T06:18:32;8.93;;;4.43;;
8825;SDS011;4449;50.872;4.714;2023-03-12T06:21:07;11.90;;;4.43;;
8825;SDS011;4449;50.872;4.714;2023-03-12T06:23:36;4.87;;;4.13;;
8825;SDS011;4449;50.872;4.714;2023-03-12T06:26:04;9.93;;;5.03;;
8825;SDS011;4449;50.872;4.714;2023-03-12T06:28:33;5.40;;;4.90;;
8825;SDS011;4449;50.872;4.714;2023-03-12T06:31:00;5.07;;;4.60;;
8825;SDS011;4449;50.872;4.714;2023-03-12T06:33:28;7.03;;;4.60;;
8825;SDS011;4449;50.872;4.714;2023-03-12T06:35:56;7.67;;;5.03;;
8825;SDS011;4449;50.872;4.714;2023-03-12T06:38:24;6.87;;;5.77;;
8825;SDS011;4449;50.872;4.714;2023-03-12T06:40:54;6.37;;;5.40;;
8825;SDS011;4449;50.872;4.714;2023-03-12T06:43:22;8.07;;;5.53;;
8825;SDS011;4449;50.872;4.714;2023-03-12T06:45:50;6.70;;;5.43;;
8825;SDS011;4449;50.872;4.714;2023-03-12T06:48:18;7.53;;;5.60;;
8825;SDS011;4449;50.872;4.714;2023-03-12T06:50:46;9.27;;;5.67;;
8825;SDS011;4449;50.872;4.714;2023-03-12T06:53:14;6.70;;;6.07;;
8825;SDS011;4449;50.872;4.714;2023-03-12T06:55:42;7.23;;;5.87;;
8825;SDS011;4449;50.872;4.714;2023-03-12T06:58:11;7.53;;;6.83;;
8825;SDS011;4449;50.872;4.714;2023-03-12T07:00:39;7.13;;;6.17;;
8825;SDS011;4449;50.872;4.714;2023-03-12T07:03:07;10.10;;;5.80;;
8825;SDS011;4449;50.872;4.714;2023-03-12T07:05:34;7.97;;;5.83;;
8825;SDS011;4449;50.872;4.714;2023-03-12T07:08:02;8.97;;;6.07;;
8825;SDS011;4449;50.872;4.714;2023-03-12T07:10:30;8.63;;;5.93;;
8825;SDS011;4449;50.872;4.714;2023-03-12T07:12:58;11.03;;;6.20;;
8825;SDS011;4449;50.872;4.714;2023-03-12T07:15:27;11.07;;;8.35;;
8825;SDS011;4449;50.872;4.714;2023-03-12T07:17:58;10.30;;;8.23;;
8825;SDS011;4449;50.872;4.714;2023-03-12T07:20:26;10.50;;;8.15;;
8825;SDS011;4449;50.872;4.714;2023-03-12T07:22:54;13.82;;;9.35;;
8825;SDS011;4449;50.872;4.714;2023-03-12T07:25:22;11.02;;;8.68;;
8825;SDS011;4449;50.872;4.714;2023-03-12T07:27:50;10.32;;;8.52;;
8825;SDS011;4449;50.872;4.714;2023-03-12T07:30:17;13.97;;;9.13;;
8825;SDS011;4449;50.872;4.714;2023-03-12T07:32:47;10.27;;;7.50;;
8825;SDS011;4449;50.872;4.714;2023-03-12T07:35:15;9.40;;;6.67;;
8825;SDS011;4449;50.872;4.714;2023-03-12T07:37:42;12.27;;;7.13;;
8825;SDS011;4449;50.872;4.714;2023-03-12T07:40:10;13.83;;;7.80;;
8825;SDS011;4449;50.872;4.714;2023-03-12T07:42:38;9.50;;;7.10;;
8825;SDS011;4449;50.872;4.714;2023-03-12T07:45:06;12.73;;;9.00;;
8825;SDS011;4449;50.872;4.714;2023-03-12T07:47:34;12.60;;;8.65;;
8825;SDS011;4449;50.872;4.714;2023-03-12T07:50:04;12.73;;;9.38;;
8825;SDS011;4449;50.872;4.714;2023-03-12T07:52:31;13.93;;;9.10;;
8825;SDS011;4449;50.872;4.714;2023-03-12T07:54:59;14.50;;;8.57;;
8825;SDS011;4449;50.872;4.714;2023-03-12T07:57:27;13.60;;;8.70;;
8825;SDS011;4449;50.872;4.714;2023-03-12T07:59:55;14.82;;;9.65;;
8825;SDS011;4449;50.872;4.714;2023-03-12T08:02:22;14.50;;;9.00;;
8825;SDS011;4449;50.872;4.714;2023-03-12T08:04:50;13.25;;;9.02;;
8825;SDS011;4449;50.872;4.714;2023-03-12T08:07:20;16.02;;;9.07;;
8825;SDS011;4449;50.872;4.714;2023-03-12T08:09:47;15.07;;;9.25;;
8825;SDS011;4449;50.872;4.714;2023-03-12T08:12:15;19.98;;;8.65;;
8825;SDS011;4449;50.872;4.714;2023-03-12T08:14:43;19.38;;;8.60;;
8825;SDS011;4449;50.872;4.714;2023-03-12T08:17:10;19.53;;;8.80;;
8825;SDS011;4449;50.872;4.714;2023-03-12T08:19:38;19.37;;;7.87;;
8825;SDS011;4449;50.872;4.714;2023-03-12T08:22:07;21.83;;;9.23;;
8825;SDS011;4449;50.872;4.714;2023-03-12T08:24:36;26.97;;;9.40;;
8825;SDS011;4449;50.872;4.714;2023-03-12T08:27:04;26.87;;;9.43;;
8825;SDS011;4449;50.872;4.714;2023-03-12T08:29:32;32.50;;;10.68;;
8825;SDS011;4449;50.872;4.714;2023-03-12T08:31:59;27.63;;;10.45;;
8825;SDS011;4449;50.872;4.714;2023-03-12T08:34:27;35.28;;;10.88;;
8825;SDS011;4449;50.872;4.714;2023-03-12T08:36:55;35.17;;;11.32;;
8825;SDS011;4449;50.872;4.714;2023-03-12T08:39:23;37.47;;;11.33;;
8825;SDS011;4449;50.872;4.714;2023-03-12T08:41:52;38.22;;;11.60;;
8825;SDS011;4449;50.872;4.714;2023-03-12T08:44:20;36.75;;;11.82;;
8825;SDS011;4449;50.872;4.714;2023-03-12T08:46:47;40.88;;;12.73;;
8825;SDS011;4449;50.872;4.714;2023-03-12T08:49:15;42.15;;;12.07;;
8825;SDS011;4449;50.872;4.714;2023-03-12T08:51:43;44.40;;;12.50;;
8825;SDS011;4449;50.872;4.714;2023-03-12T08:54:11;39.03;;;12.23;;
8825;SDS011;4449;50.872;4.714;2023-03-12T08:56:39;38.63;;;12.60;;
8825;SDS011;4449;50.872;4.714;2023-03-12T08:59:09;40.42;;;12.23;;
8825;SDS011;4449;50.872;4.714;2023-03-12T09:01:37;45.30;;;13.32;;
8825;SDS011;4449;50.872;4.714;2023-03-12T09:04:05;37.45;;;12.35;;
8825;SDS011;4449;50.872;4.714;2023-03-12T09:06:33;45.42;;;12.85;;
8825;SDS011;4449;50.872;4.714;2023-03-12T09:09:01;44.28;;;12.05;;
8825;SDS011;4449;50.872;4.714;2023-03-12T09:11:30;38.25;;;11.98;;
8825;SDS011;4449;50.872;4.714;2023-03-12T09:13:58;40.23;;;12.43;;
8825;SDS011;4449;50.872;4.714;2023-03-12T09:16:27;38.22;;;11.40;;
8825;SDS011;4449;50.872;4.714;2023-03-12T09:18:55;38.15;;;11.30;;
8825;SDS011;4449;50.872;4.714;2023-03-12T09:21:23;30.08;;;10.07;;
8825;SDS011;4449;50.872;4.714;2023-03-12T09:23:51;49.27;;;10.93;;
8825;SDS011;4449;50.872;4.714;2023-03-12T09:26:19;39.37;;;9.20;;
8825;SDS011;4449;50.872;4.714;2023-03-12T09:28:47;39.53;;;10.30;;
8825;SDS011;4449;50.872;4.714;2023-03-12T09:31:16;34.95;;;10.13;;
8825;SDS011;4449;50.872;4.714;2023-03-12T09:33:45;34.67;;;9.20;;
8825;SDS011;4449;50.872;4.714;2023-03-12T09:36:13;29.17;;;7.50;;
8825;SDS011;4449;50.872;4.714;2023-03-12T09:38:40;31.60;;;8.80;;
8825;SDS011;4449;50.872;4.714;2023-03-12T09:41:14;39.90;;;8.73;;
8825;SDS011;4449;50.872;4.714;2023-03-12T10:41:30;37.15;;;8.23;;
8825;SDS011;4449;50.872;4.714;2023-03-12T10:43:59;30.60;;;7.13;;
8825;SDS011;4449;50.872;4.714;2023-03-12T10:46:40;31.70;;;6.60;;
8825;SDS011;4449;50.872;4.714;2023-03-12T10:49:25;25.30;;;7.13;;
8825;SDS011;4449;50.872;4.714;2023-03-12T10:51:54;33.80;;;6.83;;
8825;SDS011;4449;50.872;4.714;2023-03-12T10:54:22;27.17;;;5.77;;
8825;SDS011;4449;50.872;4.714;2023-03-12T10:56:51;24.07;;;6.20;;
8825;SDS011;4449;50.872;4.714;2023-03-12T10:59:19;33.73;;;6.60;;
8825;SDS011;4449;50.872;4.714;2023-03-12T11:01:49;29.80;;;6.60;;
8825;SDS011;4449;50.872;4.714;2023-03-12T11:04:17;22.77;;;5.70;;
8825;SDS011;4449;50.872;4.714;2023-03-12T11:09:28;26.10;;;6.23;;
8825;SDS011;4449;50.872;4.714;2023-03-12T11:11:57;25.00;;;5.57;;
8825;SDS011;4449;50.872;4.714;2023-03-12T11:14:25;27.67;;;6.33;;
8825;SDS011;4449;50.872;4.714;2023-03-12T11:16:54;22.30;;;5.90;;
8825;SDS011;4449;50.872;4.714;2023-03-12T11:19:26;28.03;;;6.63;;
8825;SDS011;4449;50.872;4.714;2023-03-12T11:21:56;28.67;;;6.40;;
8825;SDS011;4449;50.872;4.714;2023-03-12T11:24:24;16.47;;;5.73;;
8825;SDS011;4449;50.872;4.714;2023-03-12T11:26:52;22.13;;;5.27;;
8825;SDS011;4449;50.872;4.714;2023-03-12T11:29:27;23.80;;;6.90;;
8825;SDS011;4449;50.872;4.714;2023-03-12T11:32:02;21.23;;;5.97;;
8825;SDS011;4449;50.872;4.714;2023-03-12T11:34:32;25.37;;;7.30;;
8825;SDS011;4449;50.872;4.714;2023-03-12T11:37:03;28.07;;;6.43;;
8825;SDS011;4449;50.872;4.714;2023-03-12T11:39:34;23.73;;;6.03;;
8825;SDS011;4449;50.872;4.714;2023-03-12T11:42:09;28.50;;;6.67;;
8825;SDS011;4449;50.872;4.714;2023-03-12T11:44:42;24.77;;;6.73;;
8825;SDS011;4449;50.872;4.714;2023-03-12T11:47:18;17.43;;;5.23;;
8825;SDS011;4449;50.872;4.714;2023-03-12T11:49:52;24.73;;;6.17;;
8825;SDS011;4449;50.872;4.714;2023-03-12T11:52:26;24.97;;;6.27;;
8825;SDS011;4449;50.872;4.714;2023-03-12T11:55:10;25.37;;;6.17;;
8825;SDS011;4449;50.872;4.714;2023-03-12T11:57:42;20.03;;;6.00;;
8825;SDS011;4449;50.872;4.714;2023-03-12T12:00:16;21.10;;;5.63;;
8825;SDS011;4449;50.872;4.714;2023-03-12T12:02:50;21.70;;;5.67;;
8825;SDS011;4449;50.872;4.714;2023-03-12T12:05:24;21.90;;;5.77;;
8825;SDS011;4449;50.872;4.714;2023-03-12T12:07:59;20.23;;;5.23;;
8825;SDS011;4449;50.872;4.714;2023-03-12T12:10:30;24.57;;;5.67;;
8825;SDS011;4449;50.872;4.714;2023-03-12T12:13:07;28.80;;;6.00;;
8825;SDS011;4449;50.872;4.714;2023-03-12T12:15:40;26.80;;;5.77;;
8825;SDS011;4449;50.872;4.714;2023-03-12T12:18:16;18.67;;;6.23;;
8825;SDS011;4449;50.872;4.714;2023-03-12T12:20:49;14.80;;;5.10;;
8825;SDS011;4449;50.872;4.714;2023-03-12T12:23:20;27.73;;;5.40;;
8825;SDS011;4449;50.872;4.714;2023-03-12T12:25:59;28.10;;;6.37;;
8825;SDS011;4449;50.872;4.714;2023-03-12T12:28:51;20.80;;;6.27;;
8825;SDS011;4449;50.872;4.714;2023-03-12T12:31:25;31.43;;;5.70;;
8825;SDS011;4449;50.872;4.714;2023-03-12T12:36:38;28.17;;;5.50;;
8825;SDS011;4449;50.872;4.714;2023-03-12T12:39:08;29.57;;;6.50;;
8825;SDS011;4449;50.872;4.714;2023-03-12T12:41:36;26.53;;;5.20;;
8825;SDS011;4449;50.872;4.714;2023-03-12T12:44:08;30.90;;;6.67;;
8825;SDS011;4449;50.872;4.714;2023-03-12T12:46:39;29.97;;;5.63;;
8825;SDS011;4449;50.872;4.714;2023-03-12T12:49:09;30.70;;;6.93;;
8825;SDS011;4449;50.872;4.714;2023-03-12T12:51:38;25.83;;;5.83;;
8825;SDS011;4449;50.872;4.714;2023-03-12T12:54:08;19.43;;;5.53;;
8825;SDS011;4449;50.872;4.714;2023-03-12T12:56:39;26.23;;;6.20;;
8825;SDS011;4449;50.872;4.714;2023-03-12T12:59:16;25.83;;;6.17;;
8825;SDS011;4449;50.872;4.714;2023-03-12T13:01:50;17.67;;;5.10;;
8825;SDS011;4449;50.872;4.714;2023-03-12T13:04:23;22.00;;;5.00;;
8825;SDS011;4449;50.872;4.714;2023-03-12T13:06:53;26.37;;;6.70;;
8825;SDS011;4449;50.872;4.714;2023-03-12T13:09:21;24.83;;;6.07;;
8825;SDS011;4449;50.872;4.714;2023-03-12T13:11:49;18.43;;;5.17;;
8825;SDS011;4449;50.872;4.714;2023-03-12T13:14:21;21.80;;;4.43;;
8825;SDS011;4449;50.872;4.714;2023-03-12T13:20:09;20.27;;;4.70;;
8825;SDS011;4449;50.872;4.714;2023-03-12T13:22:40;19.93;;;5.80;;
8825;SDS011;4449;50.872;4.714;2023-03-12T13:25:16;23.33;;;5.67;;
8825;SDS011;4449;50.872;4.714;2023-03-12T13:27:48;22.13;;;5.27;;
8825;SDS011;4449;50.872;4.714;2023-03-12T13:33:12;19.93;;;4.73;;
8825;SDS011;4449;50.872;4.714;2023-03-12T13:35:41;24.47;;;5.10;;
8825;SDS011;4449;50.872;4.714;2023-03-12T13:38:17;21.87;;;5.10;;
8825;SDS011;4449;50.872;4.714;2023-03-12T13:46:25;21.07;;;4.87;;
8825;SDS011;4449;50.872;4.714;2023-03-12T13:48:55;23.77;;;5.43;;
8825;SDS011;4449;50.872;4.714;2023-03-12T13:51:25;17.07;;;5.23;;
8825;SDS011;4449;50.872;4.714;2023-03-12T13:53:54;23.87;;;5.47;;
8825;SDS011;4449;50.872;4.714;2023-03-12T13:56:24;16.57;;;4.87;;
8825;SDS011;4449;50.872;4.714;2023-03-12T13:58:54;24.70;;;5.40;;
8825;SDS011;4449;50.872;4.714;2023-03-12T14:01:23;27.93;;;5.27;;
8825;SDS011;4449;50.872;4.714;2023-03-12T14:03:54;25.97;;;5.43;;
8825;SDS011;4449;50.872;4.714;2023-03-12T14:06:22;20.67;;;4.23;;
8825;SDS011;4449;50.872;4.714;2023-03-12T14:11:41;19.33;;;4.03;;
8825;SDS011;4449;50.872;4.714;2023-03-12T14:14:21;21.87;;;4.20;;
8825;SDS011;4449;50.872;4.714;2023-03-12T14:16:53;19.97;;;5.37;;
8825;SDS011;4449;50.872;4.714;2023-03-12T14:19:22;19.20;;;5.53;;
8825;SDS011;4449;50.872;4.714;2023-03-12T14:21:50;23.50;;;4.80;;
8825;SDS011;4449;50.872;4.714;2023-03-12T14:24:23;16.53;;;4.23;;
8825;SDS011;4449;50.872;4.714;2023-03-12T14:26:53;14.13;;;4.70;;
8825;SDS011;4449;50.872;4.714;2023-03-12T14:29:24;20.33;;;4.30;;
8825;SDS011;4449;50.872;4.714;2023-03-12T14:31:53;20.13;;;4.40;;
8825;SDS011;4449;50.872;4.714;2023-03-12T14:34:23;17.13;;;4.60;;
8825;SDS011;4449;50.872;4.714;2023-03-12T14:36:54;12.13;;;3.80;;
8825;SDS011;4449;50.872;4.714;2023-03-12T14:39:26;16.90;;;4.60;;
8825;SDS011;4449;50.872;4.714;2023-03-12T14:41:57;11.47;;;3.83;;
8825;SDS011;4449;50.872;4.714;2023-03-12T14:44:26;18.53;;;3.87;;
8825;SDS011;4449;50.872;4.714;2023-03-12T14:46:55;18.67;;;4.30;;
8825;SDS011;4449;50.872;4.714;2023-03-12T14:49:23;16.43;;;4.80;;
8825;SDS011;4449;50.872;4.714;2023-03-12T14:51:51;21.47;;;4.30;;
8825;SDS011;4449;50.872;4.714;2023-03-12T14:54:19;21.67;;;4.77;;
8825;SDS011;4449;50.872;4.714;2023-03-12T14:56:48;19.80;;;4.77;;
8825;SDS011;4449;50.872;4.714;2023-03-12T14:59:21;16.57;;;4.20;;
8825;SDS011;4449;50.872;4.714;2023-03-12T15:01:49;18.17;;;3.97;;
8825;SDS011;4449;50.872;4.714;2023-03-12T15:04:18;20.57;;;4.43;;
8825;SDS011;4449;50.872;4.714;2023-03-12T15:06:47;19.77;;;4.30;;
8825;SDS011;4449;50.872;4.714;2023-03-12T15:09:16;11.40;;;3.83;;
8825;SDS011;4449;50.872;4.714;2023-03-12T15:11:45;17.20;;;3.87;;
8825;SDS011;4449;50.872;4.714;2023-03-12T15:14:17;17.73;;;4.33;;
8825;SDS011;4449;50.872;4.714;2023-03-12T15:16:48;16.83;;;3.30;;
8825;SDS011;4449;50.872;4.714;2023-03-12T15:19:17;20.57;;;4.90;;
8825;SDS011;4449;50.872;4.714;2023-03-12T15:21:46;17.47;;;4.30;;
8825;SDS011;4449;50.872;4.714;2023-03-12T15:24:14;22.93;;;4.87;;
8825;SDS011;4449;50.872;4.714;2023-03-12T15:26:42;15.87;;;3.93;;
8825;SDS011;4449;50.872;4.714;2023-03-12T15:31:58;14.17;;;4.57;;
8825;SDS011;4449;50.872;4.714;2023-03-12T15:34:29;20.13;;;5.13;;
8825;SDS011;4449;50.872;4.714;2023-03-12T15:36:57;13.97;;;3.63;;
8825;SDS011;4449;50.872;4.714;2023-03-12T15:39:26;16.57;;;3.60;;
8825;SDS011;4449;50.872;4.714;2023-03-12T15:41:54;11.20;;;3.50;;
8825;SDS011;4449;50.872;4.714;2023-03-12T15:44:23;19.33;;;4.60;;
8825;SDS011;4449;50.872;4.714;2023-03-12T15:46:52;17.97;;;4.57;;
8825;SDS011;4449;50.872;4.714;2023-03-12T15:49:23;17.93;;;3.70;;
8825;SDS011;4449;50.872;4.714;2023-03-12T15:52:03;16.97;;;3.40;;
8825;SDS011;4449;50.872;4.714;2023-03-12T15:54:31;25.47;;;4.13;;
8825;SDS011;4449;50.872;4.714;2023-03-12T15:57:17;17.90;;;3.93;;
8825;SDS011;4449;50.872;4.714;2023-03-12T15:59:49;18.13;;;4.00;;
8825;SDS011;4449;50.872;4.714;2023-03-12T16:02:32;16.67;;;4.23;;
8825;SDS011;4449;50.872;4.714;2023-03-12T16:05:02;19.77;;;4.83;;
8825;SDS011;4449;50.872;4.714;2023-03-12T16:07:30;15.70;;;3.53;;
8825;SDS011;4449;50.872;4.714;2023-03-12T16:09:58;22.20;;;5.40;;
8825;SDS011;4449;50.872;4.714;2023-03-12T16:12:26;14.43;;;4.20;;
8825;SDS011;4449;50.872;4.714;2023-03-12T16:14:53;15.40;;;3.90;;
8825;SDS011;4449;50.872;4.714;2023-03-12T16:17:21;15.30;;;4.03;;
8825;SDS011;4449;50.872;4.714;2023-03-12T16:19:49;31.83;;;5.73;;
8825;SDS011;4449;50.872;4.714;2023-03-12T16:22:18;19.07;;;4.00;;
8825;SDS011;4449;50.872;4.714;2023-03-12T16:24:46;13.37;;;4.07;;
8825;SDS011;4449;50.872;4.714;2023-03-12T16:27:14;14.00;;;4.03;;
8825;SDS011;4449;50.872;4.714;2023-03-12T16:29:42;21.20;;;4.77;;
8825;SDS011;4449;50.872;4.714;2023-03-12T16:32:11;11.90;;;3.83;;
8825;SDS011;4449;50.872;4.714;2023-03-12T16:34:39;19.63;;;4.40;;
8825;SDS011;4449;50.872;4.714;2023-03-12T16:37:08;13.83;;;3.33;;
8825;SDS011;4449;50.872;4.714;2023-03-12T16:39:38;23.30;;;4.57;;
8825;SDS011;4449;50.872;4.714;2023-03-12T16:42:11;11.50;;;3.23;;